Airport View

Enter AWOS ICAO identifier for current METAR.

ex. KFNL

CYYB 181200Z 09012KT 15SM OVC110 M16/M20 A3027 RMK AS8 SLP289

18 Jan 2020 12:13

Other Area AWOS: CYSB - CYXR - CYQA - CWBE

TAF CYYB 180738Z 1808/1820 10007KT P6SM FEW020 OVC120 TEMPO 1808/1816 BKN020 OVC120 FM181600 09012KT P6SM -SN SCT020 OVC050 TEMPO 1816/1818 11/2SM -SN OVC020 FM181800 08015KT 1/2SM SN OVC006 TEMPO 1818/1820 1SM -SN OVC010 RMK FCST BASED ON AUTO OBS. NXT FCST BY 181400Z